Gaza, Egypt

21:55 EET 30. Srpen 2015 (GMT +0200)
Lehavim | | Change Station
CLOSE
Current Station
Osobní povětrnostní stanice
Location: להבים, מחוז הדרום
Nadmořská výška: 1047 ft
Poblíž povětrnostní stanice

Výška 1047 ft 31.37 °N, 34.82 °E | Updated 12 seconds ago

Partly Cloudy
Částečně oblačno
75.2 °F
Pocit jako 75 °F
S
0.0
Vítr proměnlivý Vítr od SV
Gusts 0.0 mil/h

Dnes
Vysoké -- | Nízké -- °F
--% Možnost srážek
Včera
Vysoké -- | Nízké -- °F
Precip. -- inčů
5:16 AM 6:09 PM
Úplněk, 98% visible
Tlak 29.86 inčů
Viditelnost 6.2 mílí
Zataženo Nemnoho 3000 ft
Tepelný index 75 °F
Rosný bod 71 °F
Vlhkost 87%
Dešťové srážky 0.00 inčů
Sněhová pokrývka Není k dispozici
UV záření 0.0 ze 12
Pyl Není k dispozici
Kvalita ovzduší Není k dispozici
Flu Activity Není k dispozici
METAR LLBG 301950Z 29004KT 9999 FEW030 28/22 Q1011 NOSIG
Tlak 29.86 inčů
Viditelnost 6.2 mílí
Zataženo Nemnoho 3000 ft
Tepelný index 75 °F
Rosný bod 71 °F
Vlhkost 87%
Dešťové srážky 0.00 inčů
Sněhová pokrývka Není k dispozici
UV záření 0.0 ze 12
Pyl Není k dispozici
Kvalita ovzduší Není k dispozici
Flu Activity Není k dispozici
METAR LLBG 301950Z 29004KT 9999 FEW030 28/22 Q1011 NOSIG

10-Day Weather Forecast

×

Almanac

Astronomie

Aug. 30, 2015 Východ Západ
Skutečný čas
Občanský soumrak
Námořní soumrak
Astronomický soumrak
Měsíc
Délka denního světla
Délka dne
Tomorrow will be .
, % of the Moon is Illuminated

Dnešní extrémy

Nejvyšší hodnoty ve státě Nejnižší hodnoty ve státě

Community

WunderPhotos

Upload Photos

1,851,041 snímků staženo!

WunderBlogs® & News

Nearby

Kvalita ovzduší

  Kvalita ovzduší Index kvality ovzduší Polutant
Not available.

Výška sněhu

Station Hloubka Nadmořská výška

Seizmická činnost

Město Distance Mag. Čas & datum
Minimální zobrazený rozsah je 2.5.

Pobřežní teplota vody

Lokalita Teplota

Stations

Poblíž povětrnostní stanice

Lokace stanice Tepl. Ochlazování větrem Rosný bod Vlhkost Vítr Precip. Výška Čas hlášení Typ